createdAt,value
2022-09-03T00:00:19.480Z,58.61
2022-09-03T00:06:17.718Z,64.56
2022-09-03T00:11:27.380Z,64.36
2022-09-03T00:16:59.485Z,60.36
2022-09-03T00:22:29.937Z,58.41
2022-09-03T00:27:37.201Z,64.49
2022-09-03T00:32:58.827Z,65.53
2022-09-03T00:38:02.070Z,61.18
2022-09-03T00:43:28.794Z,58.00
2022-09-03T00:48:41.801Z,62.32
2022-09-03T00:54:17.322Z,65.29
2022-09-03T00:59:41.460Z,61.01
2022-09-03T01:05:05.034Z,58.34
2022-09-03T01:10:30.836Z,65.05
2022-09-03T01:15:59.868Z,63.79
2022-09-03T01:21:15.029Z,60.32
2022-09-03T01:26:23.642Z,56.57
2022-09-03T01:31:39.042Z,59.56
2022-09-03T01:36:46.926Z,67.40
2022-09-03T01:42:20.575Z,62.74
2022-09-03T01:47:50.478Z,58.63
2022-09-03T01:53:13.174Z,57.69
2022-09-03T01:58:33.513Z,64.73
2022-09-03T02:03:41.506Z,63.92
2022-09-03T02:08:44.854Z,59.54
2022-09-03T02:13:52.985Z,57.77
2022-09-03T02:19:05.915Z,60.09
2022-09-03T02:24:09.495Z,68.20
2022-09-03T02:29:13.594Z,62.71
2022-09-03T02:34:16.442Z,56.84
2022-09-03T02:39:19.671Z,62.60
2022-09-03T02:44:31.636Z,64.50
2022-09-03T02:49:34.968Z,57.17
2022-09-03T02:54:41.973Z,60.82
2022-09-03T02:59:45.876Z,65.57
2022-09-03T03:04:49.322Z,61.72
2022-09-03T03:09:52.481Z,59.09
2022-09-03T03:14:56.285Z,57.08
2022-09-03T03:19:59.081Z,65.19
2022-09-03T03:25:01.977Z,63.35
2022-09-03T03:30:05.339Z,58.07
2022-09-03T03:35:08.406Z,58.27
2022-09-03T03:40:11.974Z,61.95
2022-09-03T03:45:14.928Z,68.27
2022-09-03T03:50:17.940Z,59.83
2022-09-03T03:55:21.962Z,56.43
2022-09-03T04:00:24.872Z,57.91
2022-09-03T04:05:27.653Z,67.57
2022-09-03T04:10:37.447Z,60.16
2022-09-03T04:15:41.087Z,57.22
2022-09-03T04:20:44.134Z,60.88
2022-09-03T04:25:53.195Z,67.62
2022-09-03T04:31:04.531Z,58.48
2022-09-03T04:36:12.225Z,58.30
2022-09-03T04:41:18.022Z,61.51
2022-09-03T04:46:23.576Z,68.49
2022-09-03T04:51:28.189Z,61.13
2022-09-03T04:56:34.111Z,57.25
2022-09-03T05:01:39.359Z,60.33
2022-09-03T05:06:43.641Z,66.76
2022-09-03T05:11:47.005Z,59.66
2022-09-03T05:16:53.076Z,57.11
2022-09-03T05:21:56.150Z,61.03
2022-09-03T05:26:59.108Z,66.74
2022-09-03T05:32:03.181Z,60.25
2022-09-03T05:37:06.055Z,56.08
2022-09-03T05:42:09.153Z,59.33
2022-09-03T05:47:12.084Z,64.16
2022-09-03T05:52:16.955Z,57.92
2022-09-03T05:57:19.797Z,57.34
2022-09-03T06:02:22.975Z,57.90
2022-09-03T06:07:27.668Z,49.02
2022-09-03T06:12:30.538Z,41.17
2022-09-03T06:17:33.480Z,36.13
2022-09-03T06:22:36.407Z,32.90
2022-09-03T06:27:39.256Z,33.25
2022-09-03T06:32:46.019Z,28.47
2022-09-03T06:37:49.256Z,28.11
2022-09-03T06:43:02.743Z,30.67
2022-09-03T06:48:06.068Z,33.96
2022-09-03T06:53:09.429Z,38.21
2022-09-03T06:58:12.304Z,43.14
2022-09-03T07:03:18.061Z,45.26
2022-09-03T07:08:20.879Z,48.20
2022-09-03T07:13:26.164Z,50.30
2022-09-03T07:18:29.008Z,51.68
2022-09-03T07:23:33.567Z,52.22
2022-09-03T07:28:38.498Z,46.50
2022-09-03T07:33:42.532Z,41.45
2022-09-03T07:38:45.781Z,36.20
2022-09-03T07:43:49.254Z,32.40
2022-09-03T07:48:58.176Z,29.97
2022-09-03T07:54:04.059Z,27.65
2022-09-03T07:59:07.761Z,27.68
2022-09-03T08:04:12.010Z,26.17
2022-09-03T08:09:15.024Z,25.79
2022-09-03T08:14:19.202Z,24.99
2022-09-03T08:19:23.520Z,26.36
2022-09-03T08:24:26.556Z,25.76
2022-09-03T08:29:29.355Z,25.83
2022-09-03T08:34:32.708Z,25.91
2022-09-03T08:39:35.974Z,25.17
2022-09-03T08:44:50.030Z,24.60
2022-09-03T08:50:18.326Z,25.91
2022-09-03T08:55:34.490Z,25.81
2022-09-03T09:00:40.200Z,26.25
2022-09-03T09:06:07.291Z,25.94
2022-09-03T09:11:48.801Z,25.78
2022-09-03T09:16:57.536Z,25.76
2022-09-03T09:22:38.560Z,28.26
2022-09-03T09:27:55.266Z,30.39
2022-09-03T09:33:00.633Z,31.10
2022-09-03T09:38:03.874Z,33.53
2022-09-03T09:43:12.385Z,35.63
2022-09-03T09:48:33.725Z,36.59
2022-09-03T09:53:36.914Z,37.72
2022-09-03T09:58:40.173Z,38.37
2022-09-03T10:03:58.156Z,38.12
2022-09-03T10:09:12.708Z,38.28
2022-09-03T10:14:24.229Z,38.59
2022-09-03T10:20:14.764Z,38.59
2022-09-03T10:25:21.296Z,38.13
2022-09-03T10:30:25.478Z,37.46
2022-09-03T10:35:42.521Z,37.57
2022-09-03T10:41:03.391Z,37.48
2022-09-03T10:46:29.007Z,38.77
2022-09-03T10:52:10.034Z,39.56
2022-09-03T10:57:25.102Z,40.25
2022-09-03T11:03:00.320Z,39.70
2022-09-03T11:08:10.149Z,40.27
2022-09-03T11:13:18.963Z,39.90
2022-09-03T11:18:27.215Z,39.80
2022-09-03T11:23:36.457Z,40.07
2022-09-03T11:28:52.131Z,40.22
2022-09-03T11:34:06.442Z,40.09
2022-09-03T11:39:19.111Z,40.00
2022-09-03T11:44:22.123Z,40.11
2022-09-03T11:49:33.663Z,40.03
2022-09-03T11:54:47.148Z,39.68
2022-09-03T11:59:50.409Z,39.89
2022-09-03T12:05:19.640Z,39.76
2022-09-03T12:10:41.855Z,39.97
2022-09-03T12:16:08.641Z,39.56
2022-09-03T12:21:11.764Z,39.31
2022-09-03T12:26:20.646Z,39.68
2022-09-03T12:31:31.242Z,39.96
2022-09-03T12:36:41.608Z,40.58
2022-09-03T12:42:05.839Z,40.64
2022-09-03T12:52:45.265Z,40.92
2022-09-03T12:58:02.192Z,41.05
2022-09-03T13:03:16.501Z,40.48
2022-09-03T13:08:23.813Z,40.53
2022-09-03T13:13:30.143Z,40.76
2022-09-03T13:18:49.187Z,40.91
2022-09-03T13:24:06.631Z,40.96
2022-09-03T13:29:15.391Z,40.66
2022-09-03T13:34:38.419Z,40.62
2022-09-03T13:39:51.338Z,40.98
2022-09-03T13:45:06.355Z,40.38
2022-09-03T13:50:24.381Z,40.40
2022-09-03T13:55:43.588Z,40.57
2022-09-03T14:00:54.311Z,40.72
2022-09-03T14:06:08.982Z,40.75
2022-09-03T14:11:28.063Z,41.04
2022-09-03T14:17:00.240Z,41.39
2022-09-03T14:22:49.820Z,41.12
2022-09-03T14:27:54.788Z,41.07
2022-09-03T14:33:24.655Z,40.89
2022-09-03T14:38:27.563Z,41.11
2022-09-03T14:43:51.770Z,41.23
2022-09-03T14:49:14.684Z,40.75
2022-09-03T14:54:36.300Z,40.57
2022-09-03T15:00:01.452Z,40.01
2022-09-03T15:05:31.155Z,40.79
2022-09-03T15:10:46.990Z,41.04
2022-09-03T15:16:01.773Z,40.46
2022-09-03T15:21:29.448Z,40.58
2022-09-03T15:26:41.886Z,40.68
2022-09-03T15:32:23.341Z,40.97
2022-09-03T15:37:34.661Z,40.81
2022-09-03T15:42:38.676Z,40.92
2022-09-03T15:47:51.910Z,41.21
2022-09-03T15:52:55.119Z,41.16
2022-09-03T15:58:19.491Z,41.04
2022-09-03T16:03:56.191Z,41.12
2022-09-03T16:09:09.760Z,41.82
2022-09-03T16:14:22.251Z,42.56
2022-09-03T16:19:38.417Z,42.38
2022-09-03T16:24:51.593Z,42.96
2022-09-03T16:29:59.706Z,43.96
2022-09-03T16:35:09.365Z,44.59
2022-09-03T16:40:37.116Z,45.10
2022-09-03T16:45:43.105Z,45.51
2022-09-03T16:51:04.509Z,46.10
2022-09-03T16:56:39.719Z,46.63
2022-09-03T17:01:52.765Z,47.30
2022-09-03T17:07:04.026Z,47.80
2022-09-03T17:12:28.196Z,48.32
2022-09-03T17:17:44.213Z,48.87
2022-09-03T17:22:56.136Z,49.25
2022-09-03T17:28:21.448Z,50.00
2022-09-03T17:33:35.731Z,51.01
2022-09-03T17:39:06.957Z,51.48
2022-09-03T17:44:27.309Z,52.13
2022-09-03T17:49:41.483Z,52.47
2022-09-03T17:54:49.609Z,53.12
2022-09-03T18:00:05.591Z,54.35
2022-09-03T18:05:24.167Z,54.99
2022-09-03T18:10:42.067Z,55.51
2022-09-03T18:15:51.992Z,55.73
2022-09-03T18:21:27.766Z,56.16
2022-09-03T18:26:56.053Z,56.27
2022-09-03T18:32:18.923Z,56.56
2022-09-03T18:37:44.156Z,56.99
2022-09-03T18:43:24.399Z,57.05
2022-09-03T18:49:07.977Z,57.32
2022-09-03T18:55:08.651Z,57.48
2022-09-03T19:00:34.901Z,58.17
2022-09-03T19:06:34.975Z,59.13
2022-09-03T19:12:15.223Z,59.13
2022-09-03T19:17:45.548Z,59.59
2022-09-03T19:23:06.734Z,59.98
2022-09-03T19:28:42.279Z,60.30
2022-09-03T19:34:10.795Z,60.45
2022-09-03T19:39:43.982Z,60.42
2022-09-03T19:45:29.143Z,61.06
2022-09-03T19:50:56.353Z,60.59
2022-09-03T19:56:22.488Z,64.10
2022-09-03T20:01:51.714Z,55.97
2022-09-03T20:07:16.249Z,56.14
2022-09-03T20:12:23.343Z,58.55
2022-09-03T20:17:49.189Z,58.69
2022-09-03T20:23:03.333Z,59.43
2022-09-03T20:28:33.811Z,63.65
2022-09-03T20:33:57.911Z,62.12
2022-09-03T20:39:15.754Z,54.51
2022-09-03T20:44:26.216Z,56.04
2022-09-03T20:50:04.423Z,56.80
2022-09-03T20:55:19.848Z,58.10
2022-09-03T21:00:23.770Z,59.74
2022-09-03T21:05:52.691Z,60.41
2022-09-03T21:11:10.159Z,61.74
2022-09-03T21:16:37.893Z,67.49
2022-09-03T21:21:52.733Z,56.85
2022-09-03T21:27:11.199Z,54.61
2022-09-03T21:32:20.426Z,55.72
2022-09-03T21:37:24.664Z,57.85
2022-09-03T21:42:46.261Z,58.75
2022-09-03T21:47:54.016Z,60.08
2022-09-03T21:53:13.639Z,61.70
2022-09-03T21:58:25.924Z,66.24
2022-09-03T22:03:29.111Z,55.16
2022-09-03T22:08:46.441Z,55.00
2022-09-03T22:13:59.221Z,57.19
2022-09-03T22:19:02.219Z,58.15
2022-09-03T22:24:58.988Z,59.49
2022-09-03T22:30:11.508Z,65.64
2022-09-03T22:35:23.352Z,60.34
2022-09-03T22:40:35.409Z,53.69
2022-09-03T22:46:05.774Z,56.43
2022-09-03T22:51:09.371Z,57.25
2022-09-03T22:56:15.978Z,60.17
2022-09-03T23:01:34.989Z,60.99
2022-09-03T23:06:51.162Z,65.73
2022-09-03T23:12:29.948Z,63.38
2022-09-03T23:17:40.101Z,53.21
2022-09-03T23:22:59.537Z,54.55
2022-09-03T23:28:20.941Z,56.44
2022-09-03T23:33:23.768Z,58.81
2022-09-03T23:39:05.127Z,59.66
2022-09-03T23:44:46.022Z,60.53
2022-09-03T23:50:27.155Z,69.57
2022-09-03T23:55:52.369Z,57.03
